Time;durP1;ratioP1;P1;durP2;ratioP2;P2;SDS_P1;SDS_P2;PMS_P1;PMS_P2;Temp;Humidity;BMP_temperature;BMP_pressure;BME280_temperature;BME280_humidity;BME280_pressure;Samples;Min_cycle;Max_cycle;Signal;HPM_P1;HPM_P2
2024/01/24 00:00:29;;;;;;;13.10;9.90;;;;;;;0.60;100.00;101176.73;104636;1260;72702;-55
2024/01/24 00:02:56;;;;;;;11.90;9.10;;;;;;;0.59;100.00;101177.44;104825;1253;60437;-56
2024/01/24 00:05:24;;;;;;;11.90;9.40;;;;;;;0.59;100.00;101181.50;105348;1255;60475;-56
2024/01/24 00:07:51;;;;;;;14.90;11.20;;;;;;;0.58;100.00;101177.78;104680;1254;73587;-56
2024/01/24 00:10:18;;;;;;;14.30;9.00;;;;;;;0.58;100.00;101178.48;104783;1254;65551;-56
2024/01/24 00:12:46;;;;;;;14.40;9.40;;;;;;;0.57;100.00;101173.17;104848;1254;72731;-56
2024/01/24 00:15:14;;;;;;;13.00;9.70;;;;;;;0.58;100.00;101168.58;104994;1254;60519;-56
2024/01/24 00:17:41;;;;;;;12.30;8.90;;;;;;;0.58;100.00;101172.13;104979;1258;60447;-57
2024/01/24 00:20:12;;;;;;;13.60;9.00;;;;;;;0.59;100.00;101170.73;105082;1254;73831;-56
2024/01/24 00:22:40;;;;;;;12.60;8.80;;;;;;;0.60;100.00;101166.13;105259;1254;66149;-57
2024/01/24 00:25:07;;;;;;;11.50;9.50;;;;;;;0.62;100.00;101158.73;104977;1254;72753;-55
2024/01/24 00:27:34;;;;;;;13.70;9.90;;;;;;;0.63;100.00;101162.65;104697;1255;60559;-57
2024/01/24 00:30:03;;;;;;;15.10;9.70;;;;;;;0.64;100.00;101157.37;104932;1254;60519;-58
2024/01/24 00:32:31;;;;;;;13.40;10.20;;;;;;;0.65;100.00;101157.37;109054;1254;74307;-55
2024/01/24 00:34:58;;;;;;;13.00;11.30;;;;;;;0.64;100.00;101157.55;109037;1254;65919;-54
2024/01/24 00:37:25;;;;;;;12.30;10.30;;;;;;;0.62;100.00;101156.96;109129;1253;73018;-56
2024/01/24 00:39:53;;;;;;;12.90;10.30;;;;;;;0.61;100.00;101152.00;109181;1254;59970;-57
2024/01/24 00:42:20;;;;;;;15.50;10.60;;;;;;;0.62;100.00;101153.61;109045;1254;58716;-55
2024/01/24 00:44:48;;;;;;;13.00;9.60;;;;;;;0.62;100.00;101146.91;108748;1254;72734;-57
2024/01/24 00:47:15;;;;;;;13.70;10.80;;;;;;;0.64;100.00;101148.52;109002;1254;67803;-58
2024/01/24 00:49:42;;;;;;;17.10;10.70;;;;;;;0.66;100.00;101151.03;107511;1254;72749;-55
2024/01/24 00:52:10;;;;;;;17.30;11.90;;;;;;;0.68;100.00;101153.00;104989;1254;60437;-56
2024/01/24 00:54:37;;;;;;;13.40;11.20;;;;;;;0.68;100.00;101148.05;104690;1254;61754;-58
2024/01/24 00:57:04;;;;;;;14.90;12.10;;;;;;;0.69;100.00;101150.34;104807;1259;74279;-57
2024/01/24 00:59:31;;;;;;;12.90;9.70;;;;;;;0.68;100.00;101148.23;104713;1260;67383;-55
2024/01/24 01:01:59;;;;;;;14.60;11.50;;;;;;;0.65;100.00;101146.08;104691;1254;70549;-56
2024/01/24 01:04:26;;;;;;;16.30;11.00;;;;;;;0.63;100.00;101145.86;104707;1256;61762;-55
2024/01/24 01:06:54;;;;;;;12.20;9.60;;;;;;;0.63;100.00;101142.49;104715;1260;60619;-55
2024/01/24 01:09:21;;;;;;;12.50;9.50;;;;;;;0.63;100.00;101138.61;104923;1253;72662;-55
2024/01/24 01:11:48;;;;;;;14.00;10.40;;;;;;;0.63;100.00;101139.15;104981;1257;65941;-55
2024/01/24 01:14:15;;;;;;;12.50;10.10;;;;;;;0.65;100.00;101140.77;104934;1257;73130;-54
2024/01/24 01:16:43;;;;;;;11.50;9.40;;;;;;;0.66;100.00;101138.33;105044;1258;60539;-56
2024/01/24 01:19:10;;;;;;;14.80;10.70;;;;;;;0.65;100.00;101134.59;104965;1259;60491;-56
2024/01/24 01:21:40;;;;;;;16.40;11.80;;;;;;;0.66;100.00;101137.44;105294;1254;72948;-57
2024/01/24 01:24:10;;;;;;;14.10;11.00;;;;;;;0.67;100.00;101135.87;105325;1254;66950;-56
2024/01/24 01:26:39;;;;;;;19.00;12.10;;;;;;;0.65;100.00;101134.77;105787;1254;70956;-57
2024/01/24 01:29:06;;;;;;;14.00;10.70;;;;;;;0.64;100.00;101131.39;104983;1259;60555;-57
2024/01/24 01:31:33;;;;;;;14.50;10.40;;;;;;;0.62;100.00;101127.48;104689;1253;60697;-56
2024/01/24 01:34:02;;;;;;;14.90;10.50;;;;;;;0.62;100.00;101131.36;104916;1256;72909;-59
2024/01/24 01:36:30;;;;;;;15.30;9.90;;;;;;;0.62;100.00;101130.83;105790;1254;66428;-55
2024/01/24 01:38:57;;;;;;;16.20;11.00;;;;;;;0.63;100.00;101130.13;104805;1254;72732;-55
2024/01/24 01:41:24;;;;;;;13.40;9.80;;;;;;;0.64;100.00;101129.98;104580;1259;60424;-55
2024/01/24 01:43:52;;;;;;;14.40;10.20;;;;;;;0.66;100.00;101127.73;104794;1260;60494;-56
2024/01/24 01:46:19;;;;;;;14.80;11.00;;;;;;;0.68;100.00;101125.98;104847;1255;75769;-54
2024/01/24 01:48:48;;;;;;;17.10;11.50;;;;;;;0.68;100.00;101127.91;104853;1256;67036;-57
2024/01/24 01:51:16;;;;;;;14.80;10.80;;;;;;;0.68;100.00;101130.57;104639;1254;72365;-55
2024/01/24 01:53:44;;;;;;;17.10;11.40;;;;;;;0.66;100.00;101121.54;105109;1260;60408;-54
2024/01/24 01:56:12;;;;;;;13.60;10.80;;;;;;;0.63;100.00;101114.60;104979;1254;61591;-57
2024/01/24 01:58:39;;;;;;;14.90;11.50;;;;;;;0.61;100.00;101113.69;105069;1260;73902;-58
2024/01/24 02:01:07;;;;;;;13.70;11.20;;;;;;;0.60;100.00;101115.25;105004;1254;65753;-55
2024/01/24 02:03:37;;;;;;;15.30;10.50;;;;;;;0.59;100.00;101112.61;104782;1257;71428;-54
2024/01/24 02:06:05;;;;;;;14.10;9.70;;;;;;;0.60;100.00;101109.23;105263;1254;61236;-56
2024/01/24 02:08:34;;;;;;;12.20;8.50;;;;;;;0.60;100.00;101105.89;104888;1260;59325;-55
2024/01/24 02:11:02;;;;;;;12.70;9.70;;;;;;;0.62;100.00;101118.10;104945;1260;74477;-54
2024/01/24 02:13:32;;;;;;;16.90;10.20;;;;;;;0.65;100.00;101127.17;106105;1254;66952;-56
2024/01/24 02:15:59;;;;;;;15.40;10.00;;;;;;;0.67;100.00;101114.30;105019;1257;72743;-58
2024/01/24 02:18:27;;;;;;;13.60;9.60;;;;;;;0.68;100.00;101120.66;105246;1253;60448;-58
2024/01/24 02:20:55;;;;;;;16.30;10.70;;;;;;;0.67;100.00;101120.50;104940;1258;60320;-57
2024/01/24 02:23:23;;;;;;;14.70;11.00;;;;;;;0.67;100.00;101121.02;105346;1253;74056;-57
2024/01/24 02:25:51;;;;;;;17.00;12.10;;;;;;;0.65;100.00;101119.41;104840;1256;64648;-58
2024/01/24 02:28:19;;;;;;;13.70;10.30;;;;;;;0.64;100.00;101119.39;104931;1255;72723;-58
2024/01/24 02:30:46;;;;;;;14.80;10.90;;;;;;;0.62;100.00;101118.13;104790;1254;60959;-58
2024/01/24 02:33:13;;;;;;;14.30;11.10;;;;;;;0.63;100.00;101119.00;104960;1254;60498;-58
2024/01/24 02:35:41;;;;;;;16.50;11.20;;;;;;;0.64;100.00;101125.92;104908;1257;71789;-57
2024/01/24 02:38:09;;;;;;;21.60;11.60;;;;;;;0.66;100.00;101123.13;104804;1256;65789;-58
2024/01/24 02:40:36;;;;;;;16.90;10.50;;;;;;;0.68;100.00;101123.67;104980;1254;73152;-57
2024/01/24 02:43:04;;;;;;;17.20;11.50;;;;;;;0.70;100.00;101124.05;104767;1259;61314;-57
2024/01/24 02:45:31;;;;;;;17.80;12.00;;;;;;;0.72;100.00;101123.90;105733;1254;60562;-58
2024/01/24 02:47:59;;;;;;;18.10;11.70;;;;;;;0.72;100.00;101123.90;106448;1256;72666;-57
2024/01/24 02:50:27;;;;;;;19.40;12.70;;;;;;;0.73;100.00;101115.78;105004;1256;66727;-58
2024/01/24 02:52:54;;;;;;;18.80;13.20;;;;;;;0.72;100.00;101113.48;104872;1256;72675;-58
2024/01/24 02:55:22;;;;;;;18.50;13.00;;;;;;;0.72;100.00;101119.83;104871;1253;60930;-54
2024/01/24 02:57:49;;;;;;;15.30;11.30;;;;;;;0.72;100.00;101120.38;105341;1254;60460;-56
2024/01/24 03:00:17;;;;;;;18.60;11.60;;;;;;;0.71;100.00;101117.88;105838;1254;72681;-54
2024/01/24 03:02:45;;;;;;;21.70;12.40;;;;;;;0.71;100.00;101116.64;107066;1254;66232;-54
2024/01/24 03:05:12;;;;;;;15.40;11.10;;;;;;;0.72;100.00;101105.52;105139;1254;72456;-54
2024/01/24 03:07:40;;;;;;;16.50;11.90;;;;;;;0.73;100.00;101096.89;105136;1254;60644;-55
2024/01/24 03:10:10;;;;;;;16.50;11.60;;;;;;;0.76;100.00;101093.75;104874;1254;60355;-55
2024/01/24 03:12:38;;;;;;;19.40;12.40;;;;;;;0.79;100.00;101094.48;105095;1258;73889;-54
2024/01/24 03:15:05;;;;;;;17.90;12.80;;;;;;;0.80;100.00;101096.42;105145;1254;65705;-54
2024/01/24 03:17:33;;;;;;;20.20;14.00;;;;;;;0.80;100.00;101103.69;105116;1255;71287;-56
2024/01/24 03:20:01;;;;;;;20.00;12.90;;;;;;;0.80;100.00;101111.98;106393;1255;60440;-56
2024/01/24 03:22:29;;;;;;;21.80;13.10;;;;;;;0.80;100.00;101105.63;105277;1254;60501;-56
2024/01/24 03:24:56;;;;;;;20.00;13.80;;;;;;;0.80;100.00;101107.74;105007;1254;72619;-55
2024/01/24 03:27:24;;;;;;;19.00;13.20;;;;;;;0.80;100.00;101108.80;106076;1255;67741;-56
2024/01/24 03:29:51;;;;;;;21.40;13.40;;;;;;;0.79;100.00;101106.50;105075;1257;71641;-56
2024/01/24 03:32:18;;;;;;;20.10;13.50;;;;;;;0.80;100.00;101108.45;104937;1254;60923;-55
2024/01/24 03:34:55;;;;;;;20.60;13.70;;;;;;;0.80;100.00;101111.45;105005;1254;60463;-55
2024/01/24 03:37:23;;;;;;;20.90;12.90;;;;;;;0.81;100.00;101108.98;105002;1259;73978;-56
2024/01/24 03:39:50;;;;;;;18.00;12.40;;;;;;;0.82;100.00;101106.00;105115;1257;65708;-55
2024/01/24 03:42:18;;;;;;;20.60;14.00;;;;;;;0.84;100.00;101102.50;105063;1254;72763;-58
2024/01/24 03:44:45;;;;;;;18.40;12.40;;;;;;;0.85;100.00;101103.04;104783;1260;60473;-55
2024/01/24 03:47:12;;;;;;;20.50;14.60;;;;;;;0.88;100.00;101103.42;104986;1257;60382;-58
2024/01/24 03:49:40;;;;;;;24.40;15.80;;;;;;;0.88;100.00;101104.31;104878;1257;172373;-56
2024/01/24 03:52:52;;;;;;;28.00;14.50;;;;;;;0.89;100.00;101163.70;102025;1294;600829;-54
2024/01/24 03:55:19;;;;;;;27.50;15.60;;;;;;;0.87;100.00;101162.09;104104;1272;61078;-56
2024/01/24 03:57:47;;;;;;;25.20;15.10;;;;;;;0.88;100.00;101147.08;103997;1267;60134;-53
2024/01/24 04:00:16;;;;;;;36.70;19.80;;;;;;;0.88;100.00;101133.29;103859;1268;71346;-56
2024/01/24 04:02:44;;;;;;;39.60;19.40;;;;;;;0.89;100.00;101127.30;108789;1257;67419;-56
2024/01/24 04:05:11;;;;;;;43.00;19.70;;;;;;;0.91;100.00;101123.45;108661;1260;71503;-56
2024/01/24 04:07:38;;;;;;;50.00;21.50;;;;;;;0.93;100.00;101118.35;108623;1255;165733;-55
2024/01/24 04:10:06;;;;;;;37.70;19.10;;;;;;;0.95;100.00;101116.60;108960;1256;57841;-55
2024/01/24 04:12:34;;;;;;;38.00;19.20;;;;;;;0.97;100.00;101108.50;106491;1258;70870;-55
2024/01/24 04:15:01;;;;;;;31.20;17.60;;;;;;;0.99;100.00;101106.77;104783;1256;67249;-55
2024/01/24 04:17:28;;;;;;;21.30;15.00;;;;;;;1.01;100.00;101105.36;104668;1260;73153;-56
2024/01/24 04:19:56;;;;;;;22.40;15.70;;;;;;;1.02;100.00;101103.95;104990;1260;59813;-55
2024/01/24 04:22:23;;;;;;;23.20;15.10;;;;;;;1.02;100.00;101105.73;104719;1260;59189;-55
2024/01/24 04:24:50;;;;;;;25.60;15.00;;;;;;;1.01;100.00;101106.80;104916;1260;71280;-54
2024/01/24 04:27:18;;;;;;;26.50;15.80;;;;;;;1.00;100.00;101110.14;104820;1257;66736;-54
2024/01/24 04:29:45;;;;;;;54.80;24.50;;;;;;;1.01;100.00;101115.98;104753;1260;71770;-54
2024/01/24 04:32:12;;;;;;;66.40;28.10;;;;;;;1.01;100.00;101115.63;104615;1259;60929;-54
2024/01/24 04:34:40;;;;;;;46.60;23.00;;;;;;;1.02;100.00;101118.81;104883;1258;59745;-54
2024/01/24 04:37:07;;;;;;;31.10;17.40;;;;;;;1.04;100.00;101115.45;104824;1257;73112;-55
2024/01/24 04:39:34;;;;;;;36.90;19.10;;;;;;;1.06;100.00;101121.15;104645;1257;67806;-57
2024/01/24 04:42:03;;;;;;;30.40;18.00;;;;;;;1.07;100.00;101115.69;104582;1260;70769;-55
2024/01/24 04:44:42;;;;;;;30.70;18.80;;;;;;;1.07;100.00;101112.86;105042;1257;59497;-55
2024/01/24 04:47:09;;;;;;;30.90;18.90;;;;;;;1.06;100.00;101110.19;104748;1255;60447;-54
2024/01/24 04:49:36;;;;;;;34.20;18.60;;;;;;;1.06;100.00;101115.86;104750;1260;72932;-59
2024/01/24 04:52:13;;;;;;;39.20;21.30;;;;;;;1.05;100.00;101117.43;105018;1257;65844;-58
2024/01/24 04:54:41;;;;;;;52.80;24.60;;;;;;;1.06;100.00;101118.32;104943;1256;73248;-54
2024/01/24 04:57:09;;;;;;;40.30;20.00;;;;;;;1.07;100.00;101120.81;104922;1257;61301;-55
2024/01/24 04:59:36;;;;;;;37.00;20.00;;;;;;;1.08;100.00;101113.76;104853;1259;59582;-56
2024/01/24 05:02:19;;;;;;;33.10;18.80;;;;;;;1.09;100.00;101115.72;104732;1257;73905;-57
2024/01/24 05:04:47;;;;;;;20.00;13.50;;;;;;;1.10;100.00;101118.38;105164;1257;66052;-57
2024/01/24 05:07:15;;;;;;;24.20;15.00;;;;;;;1.10;100.00;101124.04;104781;1257;72708;-55
2024/01/24 05:09:43;;;;;;;24.80;16.20;;;;;;;1.08;100.00;101132.15;104936;1257;59534;-57
2024/01/24 05:12:11;;;;;;;23.50;14.80;;;;;;;1.06;100.00;101127.70;104814;1257;59752;-56
2024/01/24 05:14:38;;;;;;;22.10;14.50;;;;;;;1.04;100.00;101117.77;104699;1263;71309;-55
2024/01/24 05:17:06;;;;;;;19.90;12.90;;;;;;;1.02;100.00;101117.40;104731;1257;65979;-55
2024/01/24 05:19:33;;;;;;;21.20;13.20;;;;;;;1.00;100.00;101116.84;104717;1257;72670;-57
2024/01/24 05:22:01;;;;;;;19.80;11.50;;;;;;;0.98;100.00;101117.17;105031;1256;60916;-56
2024/01/24 05:24:28;;;;;;;18.40;11.50;;;;;;;0.97;100.00;101121.73;104654;1256;60672;-55
2024/01/24 05:26:56;;;;;;;19.00;11.10;;;;;;;0.97;100.00;101125.63;104837;1259;71333;-54
2024/01/24 05:29:24;;;;;;;19.70;12.60;;;;;;;0.98;100.00;101135.20;104898;1257;67042;-54
2024/01/24 05:31:51;;;;;;;20.40;13.30;;;;;;;1.00;100.00;101138.06;105192;1256;71449;-57
2024/01/24 05:34:18;;;;;;;24.00;14.50;;;;;;;1.01;100.00;101140.02;104771;1254;59824;-57
2024/01/24 05:36:46;;;;;;;21.10;12.80;;;;;;;1.01;100.00;101138.61;105146;1254;60530;-57
2024/01/24 05:39:15;;;;;;;19.80;14.30;;;;;;;1.01;100.00;101135.77;104886;1254;71770;-57
2024/01/24 05:41:43;;;;;;;28.80;14.20;;;;;;;0.99;100.00;101129.20;105241;1254;67131;-58
2024/01/24 05:44:11;;;;;;;20.10;13.30;;;;;;;0.96;100.00;101125.97;105893;1254;73115;-56
2024/01/24 05:46:38;;;;;;;16.10;11.00;;;;;;;0.94;100.00;101119.40;104854;1255;59773;-57
2024/01/24 05:49:06;;;;;;;16.60;11.10;;;;;;;0.92;100.00;101121.33;104885;1257;59607;-57
2024/01/24 05:51:33;;;;;;;21.30;12.50;;;;;;;0.90;100.00;101131.02;105370;1259;72877;-57
2024/01/24 05:54:01;;;;;;;19.70;12.10;;;;;;;0.91;100.00;101129.63;105314;1254;66108;-55
2024/01/24 05:56:28;;;;;;;22.80;11.60;;;;;;;0.93;100.00;101120.47;105033;1254;72759;-57
2024/01/24 05:58:55;;;;;;;16.40;9.90;;;;;;;0.94;100.00;101115.34;104968;1258;60949;-57
2024/01/24 06:01:23;;;;;;;19.70;11.90;;;;;;;0.96;100.00;101117.66;105035;1259;59577;-56
2024/01/24 06:03:50;;;;;;;17.20;10.70;;;;;;;0.95;100.00;101117.64;105865;1258;71852;-56
2024/01/24 06:06:18;;;;;;;15.10;10.00;;;;;;;0.94;100.00;101119.76;105179;1253;65502;-56
2024/01/24 06:08:46;;;;;;;18.10;12.40;;;;;;;0.92;100.00;101117.63;104991;1254;73270;-57
2024/01/24 06:11:14;;;;;;;19.50;11.90;;;;;;;0.90;100.00;101111.77;104972;1257;59647;-54
2024/01/24 06:13:42;;;;;;;17.30;11.20;;;;;;;0.88;100.00;101109.43;105142;1253;59786;-56
2024/01/24 06:16:09;;;;;;;20.30;11.70;;;;;;;0.86;100.00;101110.11;104738;1254;71568;-57
2024/01/24 06:18:37;;;;;;;16.40;10.90;;;;;;;0.86;100.00;101104.09;104939;1259;67161;-57
2024/01/24 06:21:04;;;;;;;21.80;10.80;;;;;;;0.85;100.00;101106.58;105084;1259;71781;-58
2024/01/24 06:23:32;;;;;;;15.70;10.60;;;;;;;0.85;100.00;101108.88;104918;1259;59682;-57
2024/01/24 06:25:59;;;;;;;18.60;10.90;;;;;;;0.85;100.00;101106.40;105015;1253;60113;-57
2024/01/24 06:28:26;;;;;;;17.60;11.40;;;;;;;0.88;100.00;101104.48;104849;1259;71770;-58
2024/01/24 06:30:53;;;;;;;21.40;12.20;;;;;;;0.91;100.00;101096.92;105031;1254;66288;-57
2024/01/24 06:33:21;;;;;;;22.50;13.30;;;;;;;0.93;100.00;101095.02;104956;1257;73236;-57
2024/01/24 06:35:49;;;;;;;16.90;10.90;;;;;;;0.96;100.00;101100.33;104857;1254;59336;-57
2024/01/24 06:38:16;;;;;;;17.60;11.50;;;;;;;0.99;100.00;101096.33;105008;1254;60575;-58
2024/01/24 06:40:43;;;;;;;20.50;10.90;;;;;;;1.01;100.00;101086.98;105045;1260;73150;-58
2024/01/24 06:43:12;;;;;;;19.80;11.00;;;;;;;1.03;100.00;101082.58;104936;1259;66999;-58
2024/01/24 06:45:39;;;;;;;25.20;12.30;;;;;;;1.04;100.00;101082.77;105003;1258;72735;-58
2024/01/24 06:48:07;;;;;;;19.20;10.80;;;;;;;1.06;100.00;101085.44;104986;1254;59639;-58
2024/01/24 06:50:35;;;;;;;19.70;11.10;;;;;;;1.09;100.00;101084.41;109135;1253;58940;-59
2024/01/24 06:53:03;;;;;;;16.50;10.10;;;;;;;1.11;100.00;101074.36;109069;1253;71842;-59
2024/01/24 06:55:31;;;;;;;18.50;10.90;;;;;;;1.15;100.00;101078.29;109054;1254;67606;-59
2024/01/24 06:57:58;;;;;;;19.80;11.50;;;;;;;1.19;100.00;101079.05;105279;1253;72687;-59
2024/01/24 07:00:27;;;;;;;21.20;12.00;;;;;;;1.24;100.00;101079.09;109148;1253;57752;-59
2024/01/24 07:02:56;;;;;;;19.20;10.60;;;;;;;1.26;100.00;101079.13;109122;1252;58737;-59
2024/01/24 07:05:23;;;;;;;19.60;12.00;;;;;;;1.30;100.00;101071.54;109054;1253;71879;-59
2024/01/24 07:07:50;;;;;;;25.30;13.90;;;;;;;1.31;100.00;101065.38;109044;1253;67157;-59
2024/01/24 07:10:17;;;;;;;22.10;12.40;;;;;;;1.33;100.00;101073.88;106469;1254;70519;-58
2024/01/24 07:12:45;;;;;;;21.50;13.10;;;;;;;1.34;100.00;101073.56;104925;1259;61350;-58
2024/01/24 07:15:17;;;;;;;21.30;11.30;;;;;;;1.37;100.00;101077.10;105028;1259;60263;-58
2024/01/24 07:17:44;;;;;;;19.10;11.90;;;;;;;1.39;100.00;101076.42;105052;1258;71030;-58
2024/01/24 07:20:13;;;;;;;24.50;12.80;;;;;;;1.41;100.00;101076.63;106441;1259;66751;-58
2024/01/24 07:22:40;;;;;;;25.00;12.90;;;;;;;1.44;100.00;101082.85;105222;1259;71503;-57
2024/01/24 07:25:08;;;;;;;21.40;13.70;;;;;;;1.47;100.00;101086.75;104884;1254;59713;-58
2024/01/24 07:27:35;;;;;;;24.30;14.70;;;;;;;1.49;100.00;101092.80;105265;1252;60037;-58
2024/01/24 07:30:04;;;;;;;27.40;13.50;;;;;;;1.49;100.00;101094.92;105070;1254;73514;-58
2024/01/24 07:32:31;;;;;;;24.80;14.10;;;;;;;1.50;100.00;101094.05;105635;1259;66924;-58
2024/01/24 07:34:59;;;;;;;23.90;13.30;;;;;;;1.50;100.00;101084.67;104875;1255;72454;-58
2024/01/24 07:37:27;;;;;;;22.80;11.80;;;;;;;1.51;100.00;101075.31;106755;1254;59711;-57
2024/01/24 07:39:55;;;;;;;23.00;13.00;;;;;;;1.52;100.00;101067.71;104933;1254;59704;-57
2024/01/24 07:42:22;;;;;;;22.80;12.20;;;;;;;1.53;100.00;101063.29;105628;1256;73091;-58
2024/01/24 07:44:49;;;;;;;21.20;11.50;;;;;;;1.56;100.00;101063.66;104967;1259;66315;-57
2024/01/24 07:47:20;;;;;;;20.00;11.80;;;;;;;1.59;100.00;101059.45;104876;1257;71471;-56
2024/01/24 07:49:47;;;;;;;24.50;13.20;;;;;;;1.64;100.00;101060.54;105066;1254;59778;-59
2024/01/24 07:52:15;;;;;;;19.90;13.00;;;;;;;1.67;100.00;101057.05;105112;1256;59650;-55
2024/01/24 07:54:59;;;;;;;20.10;13.00;;;;;;;1.69;100.00;101054.94;105127;1259;71835;-57
2024/01/24 07:57:28;;;;;;;27.50;14.70;;;;;;;1.70;100.00;101049.46;104913;1254;65804;-58
2024/01/24 07:59:55;;;;;;;22.40;13.50;;;;;;;1.72;100.00;101045.39;104878;1254;71462;-58
2024/01/24 08:02:23;;;;;;;28.30;17.20;;;;;;;1.73;100.00;101041.15;105422;1253;60851;-58
2024/01/24 08:04:51;;;;;;;26.30;14.80;;;;;;;1.72;100.00;101044.52;105933;1254;60541;-56
2024/01/24 08:07:18;;;;;;;23.70;14.40;;;;;;;1.73;100.00;101036.02;104994;1254;72649;-57
2024/01/24 08:09:47;;;;;;;28.20;15.40;;;;;;;1.74;100.00;101029.13;105087;1254;66268;-56
2024/01/24 08:12:15;;;;;;;25.00;14.80;;;;;;;1.77;100.00;101030.59;105051;1256;71327;-57
2024/01/24 08:14:43;;;;;;;27.40;16.10;;;;;;;1.80;100.00;101034.83;105241;1254;60571;-57
2024/01/24 08:17:10;;;;;;;26.90;16.50;;;;;;;1.82;100.00;101033.27;104937;1258;60424;-57
2024/01/24 08:19:38;;;;;;;30.20;18.00;;;;;;;1.84;100.00;101026.56;107995;1253;73788;-57
2024/01/24 08:22:06;;;;;;;31.00;16.00;;;;;;;1.85;100.00;101015.06;104901;1254;67090;-57
2024/01/24 08:24:33;;;;;;;34.90;17.20;;;;;;;1.86;100.00;101012.42;105018;1258;72728;-57
2024/01/24 08:27:01;;;;;;;27.30;14.50;;;;;;;1.87;100.00;101011.54;104913;1259;62632;-57
2024/01/24 08:29:28;;;;;;;25.90;15.30;;;;;;;1.89;100.00;101013.66;105161;1258;60418;-56
2024/01/24 08:32:04;;;;;;;29.90;16.60;;;;;;;1.92;100.00;101007.16;104950;1259;74423;-57
2024/01/24 08:34:36;;;;;;;33.20;15.20;;;;;;;1.94;100.00;100999.55;105273;1254;67515;-57
2024/01/24 08:37:05;;;;;;;29.10;16.20;;;;;;;1.98;100.00;100995.14;104820;1254;73345;-58
2024/01/24 08:39:33;;;;;;;29.70;18.30;;;;;;;2.02;100.00;100997.83;105570;1253;60471;-57
2024/01/24 08:42:01;;;;;;;34.90;17.90;;;;;;;2.03;100.00;100996.77;105138;1254;60527;-59
2024/01/24 08:44:29;;;;;;;31.00;18.10;;;;;;;2.04;100.00;100998.55;105744;1254;73902;-59
2024/01/24 08:46:56;;;;;;;28.20;14.60;;;;;;;2.06;100.00;100996.77;105079;1258;67017;-59
2024/01/24 08:49:23;;;;;;;27.10;16.30;;;;;;;2.10;100.00;100986.89;104822;1254;73177;-58
2024/01/24 08:51:51;;;;;;;31.70;16.00;;;;;;;2.12;100.00;100977.00;104915;1253;60881;-59
2024/01/24 08:54:18;;;;;;;29.90;17.00;;;;;;;2.14;100.00;100974.70;105323;1259;60460;-57
2024/01/24 08:56:46;;;;;;;32.70;16.70;;;;;;;2.16;100.00;100968.16;104885;1254;72643;-58
2024/01/24 08:59:16;;;;;;;35.90;16.70;;;;;;;2.19;100.00;100963.75;105314;1254;68108;-57
2024/01/24 09:01:45;;;;;;;37.00;17.80;;;;;;;2.21;100.00;100958.09;104846;1254;72739;-58
2024/01/24 09:04:12;;;;;;;36.90;17.40;;;;;;;2.23;100.00;100952.41;105405;1254;60450;-58
2024/01/24 09:06:42;;;;;;;33.30;17.90;;;;;;;2.26;100.00;100939.16;104917;1255;60557;-58
2024/01/24 09:09:13;;;;;;;28.70;15.60;;;;;;;2.30;100.00;100932.09;105027;1258;75442;-58
2024/01/24 09:11:42;;;;;;;30.70;16.00;;;;;;;2.34;100.00;100930.16;105423;1259;66880;-57
2024/01/24 09:14:23;;;;;;;31.80;17.70;;;;;;;2.40;100.00;100925.57;104850;1253;74264;-57
2024/01/24 09:16:52;;;;;;;33.00;18.00;;;;;;;2.44;100.00;100918.67;108942;1254;59653;-59
2024/01/24 09:19:20;;;;;;;29.90;17.40;;;;;;;2.46;100.00;100914.09;105827;1257;60450;-58
2024/01/24 09:21:48;;;;;;;33.20;19.20;;;;;;;2.47;100.00;100902.91;105630;1254;72770;-57
2024/01/24 09:24:16;;;;;;;36.00;18.40;;;;;;;2.48;100.00;100885.37;104781;1254;66116;-55
2024/01/24 09:26:43;;;;;;;37.30;20.10;;;;;;;2.48;100.00;100875.80;109045;1253;72707;-58
2024/01/24 09:29:12;;;;;;;32.30;19.30;;;;;;;2.50;100.00;100871.56;106268;1259;60929;-57
2024/01/24 09:31:45;;;;;;;33.80;18.70;;;;;;;2.52;100.00;100870.33;104828;1259;60431;-56
2024/01/24 09:34:14;;;;;;;33.60;19.60;;;;;;;2.55;100.00;100864.48;105055;1254;72981;-56
2024/01/24 09:36:42;;;;;;;30.80;19.50;;;;;;;2.58;100.00;100860.95;109040;1254;65843;-57
2024/01/24 09:39:09;;;;;;;36.40;21.10;;;;;;;2.61;100.00;100866.10;109080;1253;71297;-57
2024/01/24 09:41:42;;;;;;;33.30;20.30;;;;;;;2.67;100.00;100856.70;106821;1258;60588;-56
2024/01/24 09:44:11;;;;;;;30.80;19.80;;;;;;;2.74;100.00;100846.78;109039;1253;60723;-57
2024/01/24 09:46:41;;;;;;;35.30;20.40;;;;;;;2.82;100.00;100846.27;109075;1254;73914;-58
2024/01/24 09:49:09;;;;;;;30.60;18.00;;;;;;;2.90;100.00;100842.01;109268;1254;66007;-57
2024/01/24 09:51:37;;;;;;;34.00;19.90;;;;;;;2.96;100.00;100839.36;108865;1257;72699;-57
2024/01/24 09:54:06;;;;;;;33.50;18.10;;;;;;;3.01;100.00;100837.93;109026;1253;61420;-56
2024/01/24 09:56:35;;;;;;;30.50;17.60;;;;;;;3.03;100.00;100833.14;109078;1258;58975;-57
2024/01/24 09:59:07;;;;;;;30.40;17.90;;;;;;;3.05;100.00;100830.31;109104;1252;73940;-57
2024/01/24 10:01:35;;;;;;;32.80;19.00;;;;;;;3.06;100.00;100827.82;109070;1253;66953;-57
2024/01/24 10:04:03;;;;;;;35.80;20.10;;;;;;;3.03;100.00;100822.69;109196;1257;70244;-57
2024/01/24 10:06:31;;;;;;;31.80;19.60;;;;;;;3.03;100.00;100816.30;108904;1258;62246;-58
2024/01/24 10:08:58;;;;;;;31.50;17.70;;;;;;;3.01;100.00;100811.86;107383;1255;60654;-57
2024/01/24 10:11:26;;;;;;;28.50;18.40;;;;;;;3.00;100.00;100810.08;105812;1254;75990;-57
2024/01/24 10:13:57;;;;;;;34.90;17.60;;;;;;;2.99;100.00;100807.07;104959;1259;65849;-56
2024/01/24 10:16:25;;;;;;;29.80;18.70;;;;;;;2.95;100.00;100803.54;104823;1257;72700;-55
2024/01/24 10:18:53;;;;;;;33.40;19.10;;;;;;;2.93;100.00;100796.98;104970;1254;60411;-56
2024/01/24 10:21:22;;;;;;;34.70;19.10;;;;;;;2.92;100.00;100793.25;105002;1253;60520;-57
2024/01/24 10:23:49;;;;;;;32.40;17.40;;;;;;;2.91;100.00;100784.73;105065;1255;73914;-55
2024/01/24 10:26:17;;;;;;;27.40;16.30;;;;;;;2.92;100.00;100782.27;105269;1254;65894;-57
2024/01/24 10:28:45;;;;;;;26.70;15.50;;;;;;;2.91;100.00;100777.64;104983;1259;70894;-56
2024/01/24 10:31:12;;;;;;;24.30;14.20;;;;;;;2.91;100.00;100769.84;105053;1259;60560;-56
2024/01/24 10:33:40;;;;;;;24.70;16.20;;;;;;;2.94;100.00;100765.23;108544;1259;59352;-56
2024/01/24 10:36:09;;;;;;;25.10;17.20;;;;;;;2.97;100.00;100763.13;104755;1258;73897;-56
2024/01/24 10:38:52;;;;;;;23.60;15.20;;;;;;;2.99;100.00;100763.27;104916;1254;67356;-55
2024/01/24 10:41:20;;;;;;;27.00;15.80;;;;;;;2.99;100.00;100758.66;105005;1255;73814;-57
2024/01/24 10:43:49;;;;;;;27.80;18.40;;;;;;;2.99;100.00;100754.05;104782;1255;60507;-56
2024/01/24 10:46:16;;;;;;;31.00;15.50;;;;;;;3.01;100.00;100747.14;105207;1254;60463;-56
2024/01/24 10:48:44;;;;;;;19.50;13.40;;;;;;;3.05;100.00;100741.30;104575;1254;73073;-56
2024/01/24 10:51:12;;;;;;;22.70;15.30;;;;;;;3.08;100.00;100736.48;104647;1255;65649;-57
2024/01/24 10:53:40;;;;;;;24.50;15.40;;;;;;;3.10;100.00;100727.97;105076;1260;73077;-57
2024/01/24 10:56:08;;;;;;;23.60;16.90;;;;;;;3.11;100.00;100719.64;104998;1256;60405;-56
2024/01/24 10:58:35;;;;;;;24.40;17.10;;;;;;;3.10;100.00;100709.88;105245;1254;60460;-57
2024/01/24 11:01:03;;;;;;;28.20;16.70;;;;;;;3.09;100.00;100706.86;104645;1254;73899;-55
2024/01/24 11:03:30;;;;;;;23.80;15.00;;;;;;;3.09;100.00;100706.33;104878;1254;66951;-56
2024/01/24 11:06:00;;;;;;;24.00;15.60;;;;;;;3.09;100.00;100701.37;105288;1257;71605;-55